• Join FlightAware (Why Join?)
  • Login
  • US Flag 
Gobble Gobble! 
07:42PM EST


 

Airport Tracker/Info


-or-


 

Live Flight TrackerFlight Track Log ✈ N516QS ✈ 17-Apr-2013 ✈ KORL - MYNN / NAS

Flight Track Log - Related Links

Times and Time Zones

All times are in EDT time to prevent confusion due to time zone crossing. See the N516QS flight status page for this flight to view local times or setup timezone preferences in your user account.

Time Position Orientation Groundspeed Altitude Reporting Facility
EDT Latitude Longitude Course Direction KTS MPH feet Rate Location/Type
04:02PM 28.5500 -81.3167 69° East 153 176 1,200  Level Orlando TRACON
04:03PM 28.5667 -81.2667 69° East 196 226 1,700 900 Climbing Orlando TRACON
04:04PM 28.5500 -81.2167 111° Southeast 204 235 2,900 1,260 Climbing Orlando TRACON
04:05PM 28.5333 -81.1500 106° East 202 232 4,300 1,860 Climbing Orlando TRACON
04:06PM 28.4833 -81.1000 139° Southeast 256 295 6,700 2,580 Climbing Orlando TRACON
04:08PM 28.3433 -80.9939 146° Southeast 294 338 12,600 2,460 Climbing Miami Center
04:09PM 28.2719 -80.9347 144° Southeast 330 380 14,600 1,920 Climbing Miami Center
04:10PM 28.2036 -80.8406 129° Southeast 373 429 16,500 1,860 Climbing Miami Center
04:11PM 28.1314 -80.7367 128° Southeast 403 464 18,400 2,100 Climbing Miami Center
04:12PM 28.0589 -80.6378 130° Southeast 413 475 20,700 2,400 Climbing Miami Center
04:13PM 27.9803 -80.5292 129° Southeast 429 494 23,200 2,640 Climbing Miami Center
04:14PM 27.8936 -80.4067 129° Southeast 445 512 26,000 2,280 Climbing Miami Center
04:15PM 27.8147 -80.3033 131° Southeast 459 528 27,800 960 Climbing Miami Center
04:16PM 27.7278 -80.1858 130° Southeast 477 549 28,000 60 Climbing Miami Center
04:17PM 27.6428 -80.0683 129° Southeast 482 555 28,000  Level Miami Center
04:18PM 27.5556 -79.9511 130° Southeast 487 560 28,000  Level Miami Center
04:19PM 27.4642 -79.8222 129° Southeast 487 560 28,000  Level Miami Center
04:20PM 27.3769 -79.7056 130° Southeast 482 555 28,000  Level Miami Center
04:21PM 27.2994 -79.6008 130° Southeast 482 555 28,000  Level Miami Center
04:22PM 27.2139 -79.4867 130° Southeast 482 555 28,000  Level Miami Center
04:23PM 27.1181 -79.3583 130° Southeast 487 560 28,000  Level Miami Center
04:24PM 27.0322 -79.2447 130° Southeast 487 560 28,000  Level Miami Center
04:25PM 26.9483 -79.1333 130° Southeast 480 552 28,000 -180 Level Miami Center
04:26PM 26.8644 -79.0200 130° Southeast 475 547 27,700 -900 Descending Miami Center
04:27PM 26.7806 -78.9067 130° Southeast 469 540 26,200 -1,500 Descending Miami Center
04:28PM 26.6983 -78.8031 132° Southeast 464 534 24,800 -1,140 Descending Miami Center
04:29PM 26.6142 -78.6900 130° Southeast 464 534 24,000 -420 Descending Miami Center
04:30PM 26.5253 -78.5981 137° Southeast 457 526 24,000  Level Miami Center
04:31PM 26.4514 -78.4808 125° Southeast 447 514 24,000 -660 Level Miami Center
04:32PM 26.3669 -78.3756 132° Southeast 453 521 22,700 -1,740 Descending Miami Center
04:33PM 26.2908 -78.2747 130° Southeast 447 514 20,600 -2,100 Descending Miami Center
04:34PM 26.2183 -78.1789 130° Southeast 422 486 18,600 -1,980 Descending Miami Center
04:35PM 26.1483 -78.0881 131° Southeast 401 461 16,700 -1,980 Descending Miami Center
04:36PM 26.0842 -77.9969 128° Southeast 381 438 14,700 -1,680 Descending Miami Center
04:37PM 26.0178 -77.9225 135° Southeast 364 419 13,400 -900 Descending Miami Center
04:38PM 25.9578 -77.8364 128° Southeast 352 405 13,000 -240 Descending Miami Center
04:39PM 25.8958 -77.7550 130° Southeast 352 405 13,000  Level Miami Center
04:40PM 25.8356 -77.6875 135° Southeast 330 380 13,000  Level Miami Center
04:41PM 25.7817 -77.6111 128° Southeast 317 365 13,000 -600 Level Miami Center
04:42PM 25.7233 -77.5417 133° Southeast 312 359 11,900 -1,740 Descending Miami Center
04:43PM 25.6525 -77.4950 149° Southeast 306 352 9,600 -2,340 Descending Miami Center
04:45PM 25.5475 -77.4803 173° South  Level FlightAware Approximate
04:52PM 25.0333 -77.4500 170° South  Level FlightAware Approximate
04:53PM 25.0390 -77.4662 170° South  Level Estimated
04:54PM 25.0390 -77.4662 170° South  Level Estimated
04:55PM 25.0390 -77.4662 170° South  Level Estimated
04:56PM 25.0390 -77.4662 170° South  Level Estimated
04:57PM 25.0390 -77.4662 170° South  Level Estimated
04:58PM 25.0390 -77.4662 170° South  Level Estimated
04:59PM 25.0390 -77.4662 170° South  Level Estimated
05:00PM 25.0390 -77.4662 170° South  Level Estimated
05:01PM 25.0390 -77.4662 170° South  Level Estimated
05:02PM 25.0390 -77.4662 170° South  Level Estimated
05:03PM 25.0390 -77.4662 170° South  Level Estimated
05:04PM 25.0390 -77.4662 170° South  Level Estimated